createdAt,value
2022-08-17T00:01:20.111Z,99445.80
2022-08-17T00:03:58.319Z,99447.20
2022-08-17T00:06:33.433Z,99437.80
2022-08-17T00:09:10.438Z,99440.20
2022-08-17T00:12:40.910Z,99439.20
2022-08-17T00:14:49.126Z,99441.00
2022-08-17T00:17:22.973Z,99439.80
2022-08-17T00:19:56.831Z,99434.40
2022-08-17T00:22:35.748Z,99433.20
2022-08-17T00:25:19.687Z,99431.80
2022-08-17T00:27:53.524Z,99430.40
2022-08-17T00:30:28.233Z,99432.60
2022-08-17T00:33:15.648Z,99430.80
2022-08-17T00:35:52.903Z,99432.80
2022-08-17T00:38:27.761Z,99439.20
2022-08-17T00:41:05.565Z,99440.00
2022-08-17T00:43:46.615Z,99441.20
2022-08-17T00:46:24.173Z,99444.80
2022-08-17T00:48:58.268Z,99452.60
2022-08-17T00:51:39.658Z,99449.60
2022-08-17T00:54:20.279Z,99448.40
2022-08-17T00:57:01.846Z,99448.40
2022-08-17T00:59:43.678Z,99446.80
2022-08-17T01:02:20.555Z,99447.20
2022-08-17T01:04:56.173Z,99447.80
2022-08-17T01:07:30.113Z,99448.40
2022-08-17T01:10:07.902Z,99448.60
2022-08-17T01:13:03.723Z,99447.20
2022-08-17T01:15:46.216Z,99450.80
2022-08-17T01:18:21.223Z,99447.20
2022-08-17T01:21:00.107Z,99448.60
2022-08-17T01:23:34.129Z,99448.60
2022-08-17T01:26:08.996Z,99449.60
2022-08-17T01:28:54.807Z,99446.80
2022-08-17T01:31:37.816Z,99446.20
2022-08-17T01:34:15.987Z,99442.40
2022-08-17T01:36:52.832Z,99444.80
2022-08-17T01:39:32.202Z,99443.80
2022-08-17T01:42:14.165Z,99439.80
2022-08-17T01:44:48.323Z,99443.80
2022-08-17T01:47:22.204Z,99442.60
2022-08-17T01:49:56.586Z,99441.20
2022-08-17T01:52:30.654Z,99440.80
2022-08-17T01:55:05.996Z,99439.60
2022-08-17T01:57:40.065Z,99440.80
2022-08-17T02:00:15.869Z,99444.60
2022-08-17T02:02:49.931Z,99441.40
2022-08-17T02:05:24.707Z,99444.20
2022-08-17T02:08:00.943Z,99438.40
2022-08-17T02:10:35.926Z,99439.80
2022-08-17T02:13:21.569Z,99443.00
2022-08-17T02:15:55.366Z,99434.20
2022-08-17T02:18:30.273Z,99442.60
2022-08-17T02:21:04.431Z,99438.60
2022-08-17T02:23:44.651Z,99439.40
2022-08-17T02:26:25.441Z,99434.20
2022-08-17T02:29:00.375Z,99432.20
2022-08-17T02:31:35.707Z,99423.80
2022-08-17T02:34:09.965Z,99426.00
2022-08-17T02:36:44.668Z,99427.20
2022-08-17T02:39:18.750Z,99426.80
2022-08-17T02:42:00.911Z,99428.60
2022-08-17T02:44:38.873Z,99425.00
2022-08-17T02:47:14.464Z,99426.80
2022-08-17T02:49:55.599Z,99429.00
2022-08-17T02:52:42.345Z,99425.20
2022-08-17T02:55:22.233Z,99426.00
2022-08-17T02:57:57.067Z,99426.00
2022-08-17T03:00:36.747Z,99432.40
2022-08-17T03:03:13.680Z,99437.80
2022-08-17T03:05:49.601Z,99441.40
2022-08-17T03:08:25.711Z,99445.20
2022-08-17T03:11:00.552Z,99446.20
2022-08-17T03:13:34.796Z,99451.00
2022-08-17T03:16:10.258Z,99454.20
2022-08-17T03:18:44.225Z,99453.60
2022-08-17T03:21:18.254Z,99452.20
2022-08-17T03:23:54.491Z,99451.00
2022-08-17T03:26:29.857Z,99448.60
2022-08-17T03:29:03.971Z,99451.60
2022-08-17T03:31:38.478Z,99452.20
2022-08-17T03:34:12.375Z,99457.80
2022-08-17T03:36:46.415Z,99454.00
2022-08-17T03:39:20.583Z,99454.00
2022-08-17T03:41:54.713Z,99454.80
2022-08-17T03:44:28.513Z,99453.20
2022-08-17T03:47:20.139Z,99450.80
2022-08-17T03:50:11.426Z,99460.80
2022-08-17T03:53:06.833Z,99465.80
2022-08-17T03:55:58.803Z,99460.00
2022-08-17T03:58:32.983Z,99464.80
2022-08-17T04:01:08.054Z,99465.20
2022-08-17T04:03:42.309Z,99467.20
2022-08-17T04:06:16.700Z,99471.40
2022-08-17T04:08:50.556Z,99470.20
2022-08-17T04:11:24.380Z,99464.80
2022-08-17T04:13:58.659Z,99468.20
2022-08-17T04:16:33.480Z,99470.00
2022-08-17T04:19:09.184Z,99473.20
2022-08-17T04:21:43.363Z,99477.20
2022-08-17T04:24:17.347Z,99476.20
2022-08-17T04:26:54.728Z,99480.60
2022-08-17T04:29:48.704Z,99484.40
2022-08-17T04:33:03.837Z,99490.20
2022-08-17T04:35:23.904Z,99496.20
2022-08-17T04:37:58.392Z,99493.80
2022-08-17T04:40:50.420Z,99492.80
2022-08-17T04:43:28.020Z,99491.60
2022-08-17T04:46:05.742Z,99494.60
2022-08-17T04:48:42.744Z,99497.40
2022-08-17T04:51:20.753Z,99494.60
2022-08-17T04:53:59.928Z,99491.00
2022-08-17T04:56:34.970Z,99489.00
2022-08-17T04:59:12.529Z,99490.80
2022-08-17T05:01:49.245Z,99487.00
2022-08-17T05:04:35.206Z,99488.80
2022-08-17T05:07:09.649Z,99485.80
2022-08-17T05:09:43.510Z,99487.60
2022-08-17T05:12:18.547Z,99488.60
2022-08-17T05:14:54.178Z,99488.40
2022-08-17T05:17:28.358Z,99488.40
2022-08-17T05:20:02.379Z,99493.80
2022-08-17T05:22:37.133Z,99491.20
2022-08-17T05:25:13.416Z,99494.00
2022-08-17T05:27:49.000Z,99497.20
2022-08-17T05:30:24.137Z,99494.40
2022-08-17T05:33:01.248Z,99492.40
2022-08-17T05:35:39.641Z,99494.60
2022-08-17T05:38:14.173Z,99487.60
2022-08-17T05:40:49.313Z,99490.60
2022-08-17T05:43:30.635Z,99491.60
2022-08-17T05:46:14.553Z,99494.80
2022-08-17T05:48:52.797Z,99492.20
2022-08-17T05:51:46.485Z,99495.20
2022-08-17T05:54:40.703Z,99488.80
2022-08-17T05:57:53.727Z,99485.60
2022-08-17T06:00:38.106Z,99484.20
2022-08-17T06:03:39.651Z,99485.60
2022-08-17T06:06:32.612Z,99486.80
2022-08-17T06:09:30.202Z,99489.60
2022-08-17T06:12:38.476Z,99488.00
2022-08-17T06:15:46.413Z,99492.20
2022-08-17T06:18:23.417Z,99502.00
2022-08-17T06:21:03.308Z,99496.60
2022-08-17T06:23:45.207Z,99500.40
2022-08-17T06:26:30.426Z,99503.00
2022-08-17T06:29:40.131Z,99505.60
2022-08-17T06:32:17.268Z,99499.60
2022-08-17T06:34:53.110Z,99503.80
2022-08-17T06:38:00.657Z,99506.80
2022-08-17T06:41:01.146Z,99502.20
2022-08-17T06:44:04.424Z,99509.80
2022-08-17T06:46:48.679Z,99510.80
2022-08-17T06:49:32.484Z,99505.40
2022-08-17T06:52:37.215Z,99507.20
2022-08-17T06:55:18.760Z,99504.00
2022-08-17T06:58:05.894Z,99508.60
2022-08-17T07:00:58.643Z,99509.60
2022-08-17T07:03:49.374Z,99509.20
2022-08-17T07:06:34.015Z,99506.20
2022-08-17T07:09:19.676Z,99509.80
2022-08-17T07:12:00.590Z,99513.60
2022-08-17T07:14:46.988Z,99507.00
2022-08-17T07:17:46.620Z,99510.80
2022-08-17T07:20:22.920Z,99511.00
2022-08-17T07:23:07.443Z,99511.80
2022-08-17T07:25:43.631Z,99514.60
2022-08-17T07:28:26.099Z,99511.40
2022-08-17T07:31:02.243Z,99511.60
2022-08-17T07:33:39.510Z,99512.00
2022-08-17T07:36:33.926Z,99518.00
2022-08-17T07:39:12.820Z,99521.80
2022-08-17T07:41:58.103Z,99518.60
2022-08-17T07:44:35.578Z,99515.60
2022-08-17T07:47:38.939Z,99518.40
2022-08-17T07:50:31.037Z,99523.20
2022-08-17T07:53:23.753Z,99523.00
2022-08-17T07:56:00.649Z,99522.60
2022-08-17T07:58:37.886Z,99524.20
2022-08-17T08:01:19.761Z,99519.60
2022-08-17T08:03:54.311Z,99523.60
2022-08-17T08:06:29.785Z,99527.80
2022-08-17T08:09:04.408Z,99522.60
2022-08-17T08:11:44.325Z,99519.60
2022-08-17T08:14:33.892Z,99524.20
2022-08-17T08:17:12.138Z,99525.60
2022-08-17T08:19:46.767Z,99523.80
2022-08-17T08:22:35.084Z,99524.80
2022-08-17T08:25:28.862Z,99523.40
2022-08-17T08:28:23.302Z,99521.80
2022-08-17T08:31:24.628Z,99522.00
2022-08-17T08:34:49.745Z,99522.20
2022-08-17T08:37:34.725Z,99523.40
2022-08-17T08:40:35.764Z,99528.40
2022-08-17T08:43:28.021Z,99526.60
2022-08-17T08:46:13.794Z,99522.40
2022-08-17T08:50:03.491Z,99521.20
2022-08-17T08:53:01.960Z,99519.60
2022-08-17T08:55:54.272Z,99519.60
2022-08-17T08:58:48.438Z,99519.00
2022-08-17T09:01:36.788Z,99518.00
2022-08-17T09:05:12.922Z,99517.40
2022-08-17T09:08:00.707Z,99513.80
2022-08-17T09:10:56.922Z,99515.20
2022-08-17T09:13:45.695Z,99515.00
2022-08-17T09:16:36.203Z,99508.40
2022-08-17T09:19:20.751Z,99512.20
2022-08-17T09:22:12.688Z,99519.80
2022-08-17T09:24:58.602Z,99515.80
2022-08-17T09:27:50.373Z,99517.20
2022-08-17T09:30:26.594Z,99514.20
2022-08-17T09:33:05.897Z,99516.00
2022-08-17T09:35:47.125Z,99512.20
2022-08-17T09:38:32.664Z,99509.80
2022-08-17T09:41:21.232Z,99515.00
2022-08-17T09:44:09.537Z,99509.20
2022-08-17T09:47:07.282Z,99507.00
2022-08-17T09:49:49.803Z,99505.40
2022-08-17T09:52:28.946Z,99505.20
2022-08-17T09:55:07.301Z,99504.80
2022-08-17T09:58:05.145Z,99508.80
2022-08-17T10:00:47.824Z,99505.00
2022-08-17T10:03:41.557Z,99506.00
2022-08-17T10:06:27.095Z,99505.40
2022-08-17T10:09:09.860Z,99507.00
2022-08-17T10:12:11.530Z,99509.20
2022-08-17T10:15:09.836Z,99507.20
2022-08-17T10:18:14.698Z,99507.80
2022-08-17T10:21:24.035Z,99510.60
2022-08-17T10:24:29.717Z,99512.40
2022-08-17T10:27:10.254Z,99507.80
2022-08-17T10:29:51.218Z,99507.40
2022-08-17T10:32:36.656Z,99510.40
2022-08-17T10:35:34.102Z,99508.00
2022-08-17T10:38:38.492Z,99505.60
2022-08-17T10:41:28.591Z,99508.20
2022-08-17T10:44:38.694Z,99503.40
2022-08-17T10:47:16.526Z,99510.00
2022-08-17T10:49:56.940Z,99513.20
2022-08-17T10:52:52.973Z,99518.20
2022-08-17T10:55:28.002Z,99511.60
2022-08-17T10:58:24.736Z,99516.20
2022-08-17T11:01:04.806Z,99517.60
2022-08-17T11:03:48.552Z,99518.40
2022-08-17T11:06:42.091Z,99517.20
2022-08-17T11:09:39.739Z,99518.40
2022-08-17T11:12:30.372Z,99521.00
2022-08-17T11:15:36.182Z,99520.40
2022-08-17T11:18:40.268Z,99525.80
2022-08-17T11:21:52.138Z,99524.80
2022-08-17T11:24:38.698Z,99517.80
2022-08-17T11:27:31.181Z,99520.20
2022-08-17T11:30:12.899Z,99518.20
2022-08-17T11:32:54.785Z,99516.00
2022-08-17T11:35:52.203Z,99515.60
2022-08-17T11:38:42.370Z,99515.20
2022-08-17T11:41:30.585Z,99508.00
2022-08-17T11:44:37.854Z,99510.20
2022-08-17T11:47:52.914Z,99508.60
2022-08-17T11:51:09.044Z,99509.60
2022-08-17T11:54:42.026Z,99503.60
2022-08-17T11:58:05.695Z,99496.40
2022-08-17T12:01:03.362Z,99496.60
2022-08-17T12:03:58.285Z,99491.60
2022-08-17T12:06:46.266Z,99488.20
2022-08-17T12:09:30.648Z,99489.80
2022-08-17T12:12:18.802Z,99486.00
2022-08-17T12:15:09.987Z,99482.40
2022-08-17T12:17:56.992Z,99479.80
2022-08-17T12:20:40.271Z,99485.00
2022-08-17T12:23:27.455Z,99490.00
2022-08-17T12:26:12.362Z,99489.00
2022-08-17T12:28:56.382Z,99491.40
2022-08-17T12:31:48.635Z,99489.80
2022-08-17T12:34:27.966Z,99483.60
2022-08-17T12:37:07.517Z,99481.80
2022-08-17T12:39:52.613Z,99473.80
2022-08-17T12:42:37.369Z,99473.00
2022-08-17T12:45:30.435Z,99475.20
2022-08-17T12:48:13.489Z,99478.80
2022-08-17T12:53:27.483Z,99481.20
2022-08-17T12:56:08.779Z,99480.40
2022-08-17T12:58:54.553Z,99482.60
2022-08-17T13:01:42.259Z,99479.20
2022-08-17T13:04:26.445Z,99485.20
2022-08-17T13:07:05.467Z,99480.80
2022-08-17T13:09:40.728Z,99479.40
2022-08-17T13:12:15.096Z,99477.80
2022-08-17T13:14:51.639Z,99478.20
2022-08-17T13:17:35.940Z,99478.60
2022-08-17T13:20:18.090Z,99475.20
2022-08-17T13:23:01.346Z,99480.40
2022-08-17T13:25:36.722Z,99484.20
2022-08-17T13:28:35.699Z,99477.80
2022-08-17T13:31:48.320Z,99474.60
2022-08-17T13:35:07.752Z,99475.00
2022-08-17T13:37:41.440Z,99474.20
2022-08-17T13:40:42.156Z,99473.20
2022-08-17T13:43:45.994Z,99470.40
2022-08-17T13:46:28.549Z,99469.20
2022-08-17T13:49:07.736Z,99471.40
2022-08-17T13:51:49.604Z,99474.20
2022-08-17T13:54:32.267Z,99471.60
2022-08-17T13:57:18.061Z,99473.20
2022-08-17T14:00:07.227Z,99471.80
2022-08-17T14:02:42.437Z,99476.60
2022-08-17T14:05:16.287Z,99472.40
2022-08-17T14:07:55.383Z,99474.40
2022-08-17T14:10:30.141Z,99473.60
2022-08-17T14:13:05.076Z,99470.20
2022-08-17T14:15:53.907Z,99472.00
2022-08-17T14:18:50.508Z,99474.40
2022-08-17T14:21:24.616Z,99463.80
2022-08-17T14:24:01.029Z,99457.20
2022-08-17T14:26:35.109Z,99457.00
2022-08-17T14:29:14.911Z,99465.80
2022-08-17T14:31:54.177Z,99464.80
2022-08-17T14:34:29.892Z,99467.40
2022-08-17T14:37:04.128Z,99464.80
2022-08-17T14:39:38.368Z,99467.80
2022-08-17T14:42:12.967Z,99465.80
2022-08-17T14:44:47.739Z,99465.40
2022-08-17T14:47:22.597Z,99463.80
2022-08-17T14:50:04.491Z,99459.80
2022-08-17T14:52:44.522Z,99461.20
2022-08-17T14:55:20.842Z,99464.80
2022-08-17T14:57:55.107Z,99467.80
2022-08-17T15:00:29.802Z,99469.40
2022-08-17T15:03:05.755Z,99468.60
2022-08-17T15:05:44.299Z,99464.20
2022-08-17T15:08:19.697Z,99464.20
2022-08-17T15:10:54.543Z,99469.40
2022-08-17T15:13:31.917Z,99470.80
2022-08-17T15:16:08.711Z,99464.40
2022-08-17T15:18:46.186Z,99468.00
2022-08-17T15:21:24.097Z,99468.20
2022-08-17T15:23:58.155Z,99470.00
2022-08-17T15:26:33.047Z,99469.40
2022-08-17T15:29:07.534Z,99467.40
2022-08-17T15:31:41.752Z,99465.00
2022-08-17T15:34:17.858Z,99463.60
2022-08-17T15:36:53.394Z,99466.80
2022-08-17T15:39:27.803Z,99463.00
2022-08-17T15:42:07.950Z,99459.80
2022-08-17T15:44:45.795Z,99466.00
2022-08-17T15:47:20.245Z,99469.00
2022-08-17T15:49:59.873Z,99466.00
2022-08-17T15:52:40.266Z,99467.80
2022-08-17T15:55:22.035Z,99470.20
2022-08-17T15:57:58.589Z,99475.20
2022-08-17T16:00:49.907Z,99472.40
2022-08-17T16:03:58.269Z,99477.60
2022-08-17T16:06:23.969Z,99476.80
2022-08-17T16:08:59.963Z,99478.80
2022-08-17T16:11:33.995Z,99476.80
2022-08-17T16:14:08.441Z,99479.20
2022-08-17T16:16:47.588Z,99477.80
2022-08-17T16:19:21.800Z,99479.00
2022-08-17T16:21:55.778Z,99475.00
2022-08-17T16:24:31.035Z,99481.00
2022-08-17T16:27:11.712Z,99483.00
2022-08-17T16:29:46.998Z,99482.60
2022-08-17T16:32:31.997Z,99483.20
2022-08-17T16:35:12.617Z,99484.60
2022-08-17T16:37:46.937Z,99485.20
2022-08-17T16:40:22.549Z,99487.80
2022-08-17T16:42:58.035Z,99488.00
2022-08-17T16:45:40.339Z,99485.60
2022-08-17T16:48:15.798Z,99490.80
2022-08-17T16:51:03.106Z,99488.00
2022-08-17T16:53:38.556Z,99491.20
2022-08-17T16:56:12.588Z,99492.80
2022-08-17T16:58:46.445Z,99489.00
2022-08-17T17:01:25.521Z,99487.80
2022-08-17T17:04:04.655Z,99489.20
2022-08-17T17:06:48.318Z,99493.40
2022-08-17T17:09:30.654Z,99499.40
2022-08-17T17:12:09.772Z,99497.40
2022-08-17T17:14:48.044Z,99495.20
2022-08-17T17:17:31.191Z,99496.40
2022-08-17T17:20:13.288Z,99498.20
2022-08-17T17:22:55.649Z,99497.20
2022-08-17T17:25:37.260Z,99492.20
2022-08-17T17:28:25.065Z,99494.40
2022-08-17T17:31:11.956Z,99490.60
2022-08-17T17:33:51.015Z,99493.20
2022-08-17T17:36:38.349Z,99494.60
2022-08-17T17:39:21.266Z,99503.00
2022-08-17T17:42:00.054Z,99499.60
2022-08-17T17:44:39.760Z,99508.00
2022-08-17T17:47:16.536Z,99504.60
2022-08-17T17:49:51.709Z,99502.60
2022-08-17T17:52:39.159Z,99494.40
2022-08-17T17:55:30.011Z,99496.00
2022-08-17T17:58:23.223Z,99489.40
2022-08-17T18:01:19.144Z,99495.40
2022-08-17T18:04:14.268Z,99496.60
2022-08-17T18:07:24.471Z,99505.00
2022-08-17T18:10:29.324Z,99505.80
2022-08-17T18:13:18.299Z,99509.40
2022-08-17T18:15:54.895Z,99516.20
2022-08-17T18:18:50.247Z,99512.80
2022-08-17T18:21:30.207Z,99511.40
2022-08-17T18:24:08.985Z,99507.80
2022-08-17T18:26:58.726Z,99504.80
2022-08-17T18:29:51.337Z,99503.20
2022-08-17T18:32:38.490Z,99499.00
2022-08-17T18:35:36.002Z,99504.60
2022-08-17T18:38:33.706Z,99509.80
2022-08-17T18:41:23.804Z,99513.80
2022-08-17T18:44:17.598Z,99511.60
2022-08-17T18:47:13.990Z,99512.40
2022-08-17T18:49:57.415Z,99513.60
2022-08-17T18:52:35.006Z,99518.80
2022-08-17T18:55:21.770Z,99525.60
2022-08-17T18:57:59.359Z,99526.20
2022-08-17T19:00:42.360Z,99524.40
2022-08-17T19:03:27.649Z,99523.00
2022-08-17T19:06:27.163Z,99521.40
2022-08-17T19:09:02.639Z,99518.00
2022-08-17T19:11:40.483Z,99520.80
2022-08-17T19:14:18.247Z,99522.40
2022-08-17T19:16:59.740Z,99523.60
2022-08-17T19:19:43.085Z,99524.80
2022-08-17T19:22:29.346Z,99524.80
2022-08-17T19:25:18.987Z,99528.00
2022-08-17T19:28:21.917Z,99531.20
2022-08-17T19:31:05.910Z,99539.20
2022-08-17T19:33:40.477Z,99543.00
2022-08-17T19:36:34.696Z,99543.80
2022-08-17T19:39:26.499Z,99541.00
2022-08-17T19:42:15.403Z,99541.60
2022-08-17T19:45:04.102Z,99545.20
2022-08-17T19:47:55.424Z,99552.60
2022-08-17T19:50:41.425Z,99551.20
2022-08-17T19:53:47.799Z,99557.60
2022-08-17T19:56:39.442Z,99555.40
2022-08-17T19:59:24.840Z,99552.80
2022-08-17T20:02:05.432Z,99554.00
2022-08-17T20:04:48.612Z,99565.40
2022-08-17T20:07:28.775Z,99564.00
2022-08-17T20:10:11.191Z,99557.40
2022-08-17T20:12:51.023Z,99560.60
2022-08-17T20:15:35.246Z,99560.00
2022-08-17T20:18:21.133Z,99553.80
2022-08-17T20:21:02.862Z,99552.40
2022-08-17T20:23:52.765Z,99551.40
2022-08-17T20:26:34.873Z,99553.20
2022-08-17T20:29:40.340Z,99552.80
2022-08-17T20:32:30.916Z,99549.60
2022-08-17T20:35:28.747Z,99547.20
2022-08-17T20:38:12.111Z,99551.00
2022-08-17T20:41:17.803Z,99541.80
2022-08-17T20:44:08.044Z,99539.40
2022-08-17T20:47:04.927Z,99534.20
2022-08-17T20:49:57.888Z,99538.80
2022-08-17T20:52:55.145Z,99540.00
2022-08-17T20:55:58.494Z,99538.60
2022-08-17T20:58:48.486Z,99537.20
2022-08-17T21:01:41.501Z,99539.20
2022-08-17T21:05:00.314Z,99538.60
2022-08-17T21:07:54.665Z,99530.40
2022-08-17T21:10:47.186Z,99534.00
2022-08-17T21:13:48.725Z,99537.40
2022-08-17T21:16:48.437Z,99531.00
2022-08-17T21:20:07.773Z,99526.00
2022-08-17T21:22:53.087Z,99518.60
2022-08-17T21:25:54.476Z,99519.60
2022-08-17T21:29:00.312Z,99520.80
2022-08-17T21:31:41.248Z,99528.60
2022-08-17T21:34:39.419Z,99524.40
2022-08-17T21:37:41.026Z,99523.40
2022-08-17T21:40:31.055Z,99526.00
2022-08-17T21:43:24.791Z,99526.20
2022-08-17T21:46:05.907Z,99527.80
2022-08-17T21:48:49.427Z,99528.00
2022-08-17T21:51:32.605Z,99525.80
2022-08-17T21:54:24.618Z,99532.60
2022-08-17T21:57:00.508Z,99534.60
2022-08-17T21:59:40.133Z,99534.80
2022-08-17T22:02:25.278Z,99535.60
2022-08-17T22:05:06.784Z,99534.00
2022-08-17T22:07:46.629Z,99537.40
2022-08-17T22:10:37.105Z,99539.00
2022-08-17T22:13:22.226Z,99534.40
2022-08-17T22:16:28.780Z,99533.80
2022-08-17T22:19:05.455Z,99544.80
2022-08-17T22:21:39.828Z,99550.60
2022-08-17T22:24:25.003Z,99555.80
2022-08-17T22:27:13.901Z,99547.20
2022-08-17T22:29:59.316Z,99548.00
2022-08-17T22:32:45.551Z,99552.80
2022-08-17T22:35:40.792Z,99557.80
2022-08-17T22:38:33.845Z,99558.40
2022-08-17T22:41:44.514Z,99556.60
2022-08-17T22:44:32.474Z,99565.40
2022-08-17T22:47:25.404Z,99564.20
2022-08-17T22:50:03.472Z,99566.20
2022-08-17T22:52:59.448Z,99568.80
2022-08-17T22:55:52.841Z,99571.80
2022-08-17T22:58:59.303Z,99567.80
2022-08-17T23:01:36.165Z,99565.80
2022-08-17T23:04:25.761Z,99568.20
2022-08-17T23:06:59.654Z,99569.40
2022-08-17T23:09:34.188Z,99575.60
2022-08-17T23:12:15.878Z,99577.00
2022-08-17T23:14:51.496Z,99580.80
2022-08-17T23:17:25.581Z,99576.80
2022-08-17T23:19:59.509Z,99586.20
2022-08-17T23:22:37.445Z,99581.40
2022-08-17T23:25:32.005Z,99587.40
2022-08-17T23:28:09.288Z,99591.20
2022-08-17T23:30:48.080Z,99591.20
2022-08-17T23:33:29.930Z,99587.20
2022-08-17T23:36:04.524Z,99589.60
2022-08-17T23:38:40.296Z,99584.60
2022-08-17T23:41:19.654Z,99589.80
2022-08-17T23:43:55.571Z,99585.80
2022-08-17T23:46:29.544Z,99586.00
2022-08-17T23:49:03.649Z,99583.80
2022-08-17T23:51:42.644Z,99582.20
2022-08-17T23:54:22.426Z,99578.00
2022-08-17T23:56:56.753Z,99576.60
2022-08-17T23:59:30.958Z,99573.40
